Time;durP1;ratioP1;P1;durP2;ratioP2;P2;SDS_P1;SDS_P2;PMS_P1;PMS_P2;Temp;Humidity;BMP_temperature;BMP_pressure;BME280_temperature;BME280_humidity;BME280_pressure;Samples;Min_cycle;Max_cycle;Signal;HPM_P1;HPM_P2
2022/01/06 00:00:16;;;;;;;;;;;13.20;59.60;;;;;;5082608;28;19908;-71
2022/01/06 00:02:42;;;;;;;;;;;13.20;59.60;;;;;;5100711;28;19908;-71
2022/01/06 00:05:08;;;;;;;;;;;13.10;59.70;;;;;;5100393;28;19983;-71
2022/01/06 00:07:34;;;;;;;;;;;13.10;59.70;;;;;;5100580;28;19907;-70
2022/01/06 00:10:00;;;;;;;;;;;13.10;59.70;;;;;;5100434;28;19924;-70
2022/01/06 00:12:35;;;;;;;;;;;13.10;59.80;;;;;;5100557;28;19900;-70
2022/01/06 00:15:30;;;;;;;;;;;13.10;59.80;;;;;;5100559;28;20097;-71
2022/01/06 00:23:27;;;;;;;;;;;13.10;59.90;;;;;;5100463;28;19928;-70
2022/01/06 00:25:53;;;;;;;;;;;13.10;59.90;;;;;;5082212;28;19915;-70
2022/01/06 00:28:18;;;;;;;;;;;13.10;59.90;;;;;;5100348;28;20103;-70
2022/01/06 00:30:44;;;;;;;;;;;13.10;59.90;;;;;;5100252;28;19908;-70
2022/01/06 00:33:10;;;;;;;;;;;13.10;59.90;;;;;;5100291;28;19908;-70
2022/01/06 00:35:36;;;;;;;;;;;13.10;59.90;;;;;;5100207;28;19911;-70
2022/01/06 00:38:01;;;;;;;;;;;13.10;59.90;;;;;;5082126;28;19908;-70
2022/01/06 00:40:27;;;;;;;;;;;13.10;59.80;;;;;;5100172;28;20460;-70
2022/01/06 00:42:53;;;;;;;;;;;13.10;59.70;;;;;;5100211;28;20420;-70
2022/01/06 00:45:18;;;;;;;;;;;13.10;59.70;;;;;;5100152;28;19939;-69
2022/01/06 00:47:47;;;;;;;;;;;13.10;59.70;;;;;;5100076;28;19908;-70
2022/01/06 00:50:12;;;;;;;;;;;13.10;59.70;;;;;;5099994;28;19907;-70
2022/01/06 00:52:38;;;;;;;;;;;13.10;59.80;;;;;;5100032;28;20259;-70
2022/01/06 00:55:04;;;;;;;;;;;13.10;59.70;;;;;;5100031;28;19907;-70
2022/01/06 00:57:30;;;;;;;;;;;13.10;59.70;;;;;;5099952;28;20163;-70
2022/01/06 00:59:55;;;;;;;;;;;13.10;59.80;;;;;;5099968;28;19938;-70
2022/01/06 01:02:21;;;;;;;;;;;13.10;59.80;;;;;;5099641;28;19951;-69
2022/01/06 01:04:47;;;;;;;;;;;13.10;59.80;;;;;;5099935;28;19908;-70
2022/01/06 01:07:13;;;;;;;;;;;13.00;59.90;;;;;;5099889;28;19943;-70
2022/01/06 01:09:39;;;;;;;;;;;13.00;59.90;;;;;;5099822;28;20493;-70
2022/01/06 01:12:04;;;;;;;;;;;13.00;59.90;;;;;;5099917;28;19969;-70
2022/01/06 01:14:33;;;;;;;;;;;13.00;59.90;;;;;;5099801;28;19900;-70
2022/01/06 01:17:01;;;;;;;;;;;13.00;59.90;;;;;;5100009;28;19907;-70
2022/01/06 01:19:28;;;;;;;;;;;13.00;59.80;;;;;;5103648;28;19915;-69
2022/01/06 01:21:54;;;;;;;;;;;13.00;59.80;;;;;;5103773;28;19900;-70
2022/01/06 01:24:20;;;;;;;;;;;13.00;59.80;;;;;;5103921;28;19907;-70
2022/01/06 01:26:46;;;;;;;;;;;13.00;59.80;;;;;;5085553;28;19900;-70
2022/01/06 01:29:17;;;;;;;;;;;13.00;59.80;;;;;;5085511;28;20259;-70
2022/01/06 01:31:47;;;;;;;;;;;13.00;59.70;;;;;;5103766;28;19957;-70
2022/01/06 01:34:13;;;;;;;;;;;13.00;59.80;;;;;;5103608;28;19915;-70
2022/01/06 01:36:39;;;;;;;;;;;13.00;59.80;;;;;;5103573;28;19903;-70
2022/01/06 01:39:05;;;;;;;;;;;13.00;59.80;;;;;;5103567;28;19904;-70
2022/01/06 01:41:31;;;;;;;;;;;13.00;59.80;;;;;;5103646;28;19931;-70
2022/01/06 01:43:57;;;;;;;;;;;13.00;59.80;;;;;;5085609;28;19914;-70
2022/01/06 01:46:30;;;;;;;;;;;13.00;59.80;;;;;;5104021;28;19908;-70
2022/01/06 01:51:41;;;;;;;;;;;13.00;59.90;;;;;;5103389;28;19942;-70
2022/01/06 01:54:07;;;;;;;;;;;13.00;60.60;;;;;;5103353;28;20013;-69
2022/01/06 01:56:33;;;;;;;;;;;13.00;59.90;;;;;;5103229;28;20138;-71
2022/01/06 01:58:59;;;;;;;;;;;13.00;59.90;;;;;;5103269;28;19908;-70
2022/01/06 02:01:24;;;;;;;;;;;13.00;59.90;;;;;;5103287;28;19908;-70
2022/01/06 02:03:50;;;;;;;;;;;13.00;59.90;;;;;;5103213;28;20002;-70
2022/01/06 02:06:16;;;;;;;;;;;13.00;59.90;;;;;;5085002;28;19907;-70
2022/01/06 02:08:41;;;;;;;;;;;13.00;59.90;;;;;;5084876;28;20119;-70
2022/01/06 02:11:07;;;;;;;;;;;13.00;59.90;;;;;;5103222;28;19908;-70
2022/01/06 02:13:33;;;;;;;;;;;13.00;59.90;;;;;;5084769;28;19908;-70
2022/01/06 02:16:00;;;;;;;;;;;13.00;59.90;;;;;;5102923;28;19911;-70
2022/01/06 02:18:28;;;;;;;;;;;13.00;59.80;;;;;;5102962;28;19949;-70
2022/01/06 02:20:54;;;;;;;;;;;13.00;59.80;;;;;;5102961;28;20164;-69
2022/01/06 02:23:21;;;;;;;;;;;13.00;59.90;;;;;;5102833;28;20108;-69
2022/01/06 02:25:47;;;;;;;;;;;13.00;59.80;;;;;;5102856;28;19908;-70
2022/01/06 02:28:12;;;;;;;;;;;13.00;59.90;;;;;;5102344;28;19908;-70
2022/01/06 02:30:38;;;;;;;;;;;13.00;59.90;;;;;;5084604;28;19900;-71
2022/01/06 02:33:05;;;;;;;;;;;13.00;59.90;;;;;;5102587;28;19907;-70
2022/01/06 02:35:31;;;;;;;;;;;13.00;59.90;;;;;;5102609;28;19912;-70
2022/01/06 02:37:57;;;;;;;;;;;13.00;59.90;;;;;;5102558;28;20123;-70
2022/01/06 02:40:24;;;;;;;;;;;13.00;60.00;;;;;;5102632;28;19908;-71
2022/01/06 02:42:52;;;;;;;;;;;13.00;59.90;;;;;;5102487;28;19908;-70
2022/01/06 02:45:18;;;;;;;;;;;13.00;59.90;;;;;;5102494;28;19908;-69
2022/01/06 02:47:44;;;;;;;;;;;13.00;59.90;;;;;;5102409;28;19900;-70
2022/01/06 02:50:10;;;;;;;;;;;13.00;59.90;;;;;;5084329;28;20137;-70
2022/01/06 02:52:36;;;;;;;;;;;13.00;59.90;;;;;;5102370;28;19900;-71
2022/01/06 02:55:03;;;;;;;;;;;13.00;59.90;;;;;;5102275;28;19912;-70
2022/01/06 02:57:28;;;;;;;;;;;13.00;59.90;;;;;;5102174;28;19910;-71
2022/01/06 02:59:54;;;;;;;;;;;13.00;59.90;;;;;;5102257;28;19935;-71
2022/01/06 03:02:19;;;;;;;;;;;13.00;59.90;;;;;;5102213;28;19907;-71
2022/01/06 03:04:45;;;;;;;;;;;12.90;59.90;;;;;;5102124;28;19953;-70
2022/01/06 03:07:11;;;;;;;;;;;12.90;59.90;;;;;;5083906;28;19907;-70
2022/01/06 03:09:41;;;;;;;;;;;12.90;59.90;;;;;;5101891;28;19997;-70
2022/01/06 03:12:12;;;;;;;;;;;13.00;59.90;;;;;;5102055;28;20220;-70
2022/01/06 03:14:37;;;;;;;;;;;13.00;59.90;;;;;;5101924;28;19907;-69
2022/01/06 03:17:04;;;;;;;;;;;13.00;59.90;;;;;;5101852;28;20348;-70
2022/01/06 03:19:30;;;;;;;;;;;13.00;59.90;;;;;;5083763;28;19908;-70
2022/01/06 03:21:55;;;;;;;;;;;12.90;59.90;;;;;;5101738;28;19942;-70
2022/01/06 03:24:21;;;;;;;;;;;12.90;60.00;;;;;;5101830;28;20215;-70
2022/01/06 03:26:47;;;;;;;;;;;12.90;59.90;;;;;;5101717;28;19915;-70
2022/01/06 03:29:12;;;;;;;;;;;12.90;59.90;;;;;;5101656;28;19911;-70
2022/01/06 03:31:38;;;;;;;;;;;12.90;59.90;;;;;;5101647;28;20211;-70
2022/01/06 03:34:04;;;;;;;;;;;12.90;59.90;;;;;;5101646;28;19899;-70
2022/01/06 03:36:29;;;;;;;;;;;12.90;59.90;;;;;;5101492;28;19923;-70
2022/01/06 03:38:55;;;;;;;;;;;12.90;59.90;;;;;;5101539;28;20092;-70
2022/01/06 03:41:21;;;;;;;;;;;12.90;59.80;;;;;;5100652;28;20262;-70
2022/01/06 03:43:46;;;;;;;;;;;13.00;59.80;;;;;;5101330;28;20081;-70
2022/01/06 03:46:12;;;;;;;;;;;13.00;59.80;;;;;;5083183;28;19947;-70
2022/01/06 03:48:37;;;;;;;;;;;13.00;59.80;;;;;;5101402;28;20411;-69
2022/01/06 03:51:03;;;;;;;;;;;13.00;59.90;;;;;;5101287;28;20107;-70
2022/01/06 03:53:29;;;;;;;;;;;12.90;59.90;;;;;;5101244;28;19915;-71
2022/01/06 03:55:54;;;;;;;;;;;12.90;59.90;;;;;;5101362;28;19999;-71
2022/01/06 03:58:20;;;;;;;;;;;12.90;60.00;;;;;;5083006;28;20096;-70
2022/01/06 04:00:45;;;;;;;;;;;12.90;60.00;;;;;;5083014;28;20070;-70
2022/01/06 04:03:11;;;;;;;;;;;12.90;59.90;;;;;;5101192;28;19899;-69
2022/01/06 04:05:37;;;;;;;;;;;12.90;59.90;;;;;;5101011;28;19908;-70
2022/01/06 04:08:04;;;;;;;;;;;12.90;59.90;;;;;;5100996;28;19958;-70
2022/01/06 04:10:29;;;;;;;;;;;12.90;60.00;;;;;;5082764;28;19919;-70
2022/01/06 04:12:55;;;;;;;;;;;12.90;60.60;;;;;;5100863;28;19899;-70
2022/01/06 04:15:23;;;;;;;;;;;12.90;59.90;;;;;;5100802;28;19910;-70
2022/01/06 04:17:49;;;;;;;;;;;12.90;59.90;;;;;;5100779;28;19907;-70
2022/01/06 04:20:14;;;;;;;;;;;12.90;59.90;;;;;;5100837;28;19908;-71
2022/01/06 04:22:40;;;;;;;;;;;12.90;59.90;;;;;;5100709;28;19961;-70
2022/01/06 04:25:06;;;;;;;;;;;12.90;60.00;;;;;;5100700;28;19907;-71
2022/01/06 04:27:32;;;;;;;;;;;12.90;59.90;;;;;;5100623;28;20100;-70
2022/01/06 04:29:57;;;;;;;;;;;12.90;59.80;;;;;;5082416;28;19908;-71
2022/01/06 04:32:23;;;;;;;;;;;12.90;59.90;;;;;;5082539;28;19967;-71
2022/01/06 04:34:49;;;;;;;;;;;12.90;59.90;;;;;;5100453;28;19974;-70
2022/01/06 04:37:14;;;;;;;;;;;12.90;60.00;;;;;;5100445;28;19908;-71
2022/01/06 04:39:40;;;;;;;;;;;12.90;60.00;;;;;;5100534;28;19900;-70
2022/01/06 04:42:05;;;;;;;;;;;12.90;60.00;;;;;;5100389;28;19972;-70
2022/01/06 04:44:31;;;;;;;;;;;12.90;60.00;;;;;;5100447;28;19961;-70
2022/01/06 04:46:57;;;;;;;;;;;12.90;60.00;;;;;;5100382;28;19907;-70
2022/01/06 04:49:22;;;;;;;;;;;12.90;59.90;;;;;;5082275;28;19915;-70
2022/01/06 04:51:48;;;;;;;;;;;12.90;60.00;;;;;;5100151;28;20131;-70
2022/01/06 04:54:14;;;;;;;;;;;12.90;60.00;;;;;;5100282;28;20414;-71
2022/01/06 04:56:40;;;;;;;;;;;12.90;60.60;;;;;;5081988;28;19911;-70
2022/01/06 04:59:07;;;;;;;;;;;12.90;60.00;;;;;;5100257;28;19939;-70
2022/01/06 05:01:33;;;;;;;;;;;12.90;60.00;;;;;;5100310;28;19907;-71
2022/01/06 05:03:59;;;;;;;;;;;12.90;60.00;;;;;;5100245;28;19972;-71
2022/01/06 05:06:24;;;;;;;;;;;12.90;60.00;;;;;;5100160;28;20132;-71
2022/01/06 05:08:50;;;;;;;;;;;12.90;60.00;;;;;;5100070;28;19912;-71
2022/01/06 05:11:16;;;;;;;;;;;12.90;60.00;;;;;;5100069;28;19945;-71
2022/01/06 05:13:42;;;;;;;;;;;12.90;59.90;;;;;;5100073;28;19987;-71
2022/01/06 05:16:07;;;;;;;;;;;12.90;59.90;;;;;;5100038;28;19911;-73
2022/01/06 05:18:34;;;;;;;;;;;12.90;59.90;;;;;;5100051;28;19915;-71
2022/01/06 05:21:00;;;;;;;;;;;12.90;59.90;;;;;;5100030;28;20185;-70
2022/01/06 05:23:26;;;;;;;;;;;12.90;60.00;;;;;;5099980;28;19906;-70
2022/01/06 05:25:52;;;;;;;;;;;12.90;60.00;;;;;;5099989;28;19929;-71
2022/01/06 05:28:17;;;;;;;;;;;12.90;60.00;;;;;;5100063;28;20407;-70
2022/01/06 05:30:43;;;;;;;;;;;12.80;59.90;;;;;;5099953;28;19907;-71
2022/01/06 05:33:10;;;;;;;;;;;12.90;59.90;;;;;;5081775;28;20184;-71
2022/01/06 05:35:36;;;;;;;;;;;12.90;59.80;;;;;;5099803;28;19982;-71
2022/01/06 05:38:01;;;;;;;;;;;12.90;59.90;;;;;;5099920;28;19908;-70
2022/01/06 05:40:27;;;;;;;;;;;12.80;59.80;;;;;;5099907;28;20223;-71
2022/01/06 05:42:53;;;;;;;;;;;12.80;59.90;;;;;;5099889;28;19979;-71
2022/01/06 05:45:20;;;;;;;;;;;12.80;59.90;;;;;;5099830;28;19938;-70
2022/01/06 05:47:45;;;;;;;;;;;12.80;59.90;;;;;;5099752;28;19907;-70
2022/01/06 05:50:11;;;;;;;;;;;12.80;60.00;;;;;;5099781;28;20186;-70
2022/01/06 05:52:37;;;;;;;;;;;12.80;60.00;;;;;;5099787;28;20111;-70
2022/01/06 05:55:03;;;;;;;;;;;12.80;60.00;;;;;;5099675;28;20204;-71
2022/01/06 05:57:30;;;;;;;;;;;12.90;59.90;;;;;;5099797;28;19931;-70
2022/01/06 05:59:56;;;;;;;;;;;12.80;59.90;;;;;;5099663;28;19900;-71
2022/01/06 06:02:21;;;;;;;;;;;12.80;59.90;;;;;;5099721;28;19915;-70
2022/01/06 06:04:47;;;;;;;;;;;12.80;59.90;;;;;;5102063;28;19930;-71
2022/01/06 06:07:13;;;;;;;;;;;12.80;59.80;;;;;;5103263;28;19908;-70
2022/01/06 06:09:38;;;;;;;;;;;12.80;59.80;;;;;;5102999;28;19915;-71
2022/01/06 06:12:06;;;;;;;;;;;12.80;59.90;;;;;;5103200;28;19939;-70
2022/01/06 06:14:32;;;;;;;;;;;12.80;60.50;;;;;;5103145;28;19949;-71
2022/01/06 06:16:57;;;;;;;;;;;12.80;60.50;;;;;;5102999;28;19938;-70
2022/01/06 06:19:23;;;;;;;;;;;12.80;59.80;;;;;;5103072;28;19900;-70
2022/01/06 06:21:49;;;;;;;;;;;12.80;59.80;;;;;;5102985;28;20202;-71
2022/01/06 06:24:14;;;;;;;;;;;12.80;59.90;;;;;;5102885;28;19980;-71
2022/01/06 06:26:40;;;;;;;;;;;12.80;59.90;;;;;;5102859;28;19904;-70
2022/01/06 06:29:05;;;;;;;;;;;12.80;59.90;;;;;;5102812;28;19907;-71
2022/01/06 06:31:31;;;;;;;;;;;12.80;60.00;;;;;;5102798;28;20167;-70
2022/01/06 06:33:57;;;;;;;;;;;12.80;59.90;;;;;;5102672;28;19908;-71
2022/01/06 06:36:22;;;;;;;;;;;12.80;59.90;;;;;;5102594;28;19978;-70
2022/01/06 06:38:48;;;;;;;;;;;12.80;59.90;;;;;;5102482;28;19908;-71
2022/01/06 06:41:14;;;;;;;;;;;12.80;59.90;;;;;;5102618;28;19900;-70
2022/01/06 06:43:39;;;;;;;;;;;12.80;59.90;;;;;;5102513;28;19907;-70
2022/01/06 06:46:05;;;;;;;;;;;12.80;59.90;;;;;;5102401;28;20207;-71
2022/01/06 06:48:31;;;;;;;;;;;12.80;60.00;;;;;;5084229;28;20096;-71
2022/01/06 06:50:59;;;;;;;;;;;12.80;59.90;;;;;;5102362;28;19908;-70
2022/01/06 06:53:24;;;;;;;;;;;12.80;59.90;;;;;;5102239;28;19908;-71
2022/01/06 06:55:50;;;;;;;;;;;12.80;60.00;;;;;;5102245;28;19911;-71
2022/01/06 06:58:15;;;;;;;;;;;12.80;60.00;;;;;;5102195;28;19966;-70
2022/01/06 07:00:41;;;;;;;;;;;12.80;60.60;;;;;;5084034;28;19900;-70
2022/01/06 07:03:07;;;;;;;;;;;12.80;60.00;;;;;;5102069;28;20304;-71
2022/01/06 07:05:33;;;;;;;;;;;12.80;60.00;;;;;;5102055;28;19908;-70
2022/01/06 07:07:58;;;;;;;;;;;12.80;60.00;;;;;;5101902;28;20239;-71
2022/01/06 07:10:24;;;;;;;;;;;12.80;59.90;;;;;;5101839;28;19920;-70
2022/01/06 07:12:50;;;;;;;;;;;12.80;59.90;;;;;;5101918;28;19946;-70
2022/01/06 07:15:17;;;;;;;;;;;12.80;59.90;;;;;;5100620;28;19904;-70
2022/01/06 07:17:43;;;;;;;;;;;12.80;59.90;;;;;;5101868;28;20216;-70
2022/01/06 07:20:09;;;;;;;;;;;12.80;59.90;;;;;;5101729;28;19900;-70
2022/01/06 07:22:37;;;;;;;;;;;12.80;59.90;;;;;;5101662;28;19915;-70
2022/01/06 07:25:03;;;;;;;;;;;12.80;59.80;;;;;;5083526;28;19950;-71
2022/01/06 07:27:28;;;;;;;;;;;12.80;59.90;;;;;;5101580;28;20096;-71
2022/01/06 07:29:54;;;;;;;;;;;12.80;59.90;;;;;;5101654;28;19908;-71
2022/01/06 07:32:20;;;;;;;;;;;12.80;59.90;;;;;;5101506;28;19907;-70
2022/01/06 07:34:45;;;;;;;;;;;12.80;59.90;;;;;;5101380;28;19900;-70
2022/01/06 07:37:11;;;;;;;;;;;12.70;59.90;;;;;;5101453;28;19907;-71
2022/01/06 07:39:37;;;;;;;;;;;12.80;60.00;;;;;;5101381;28;19936;-71
2022/01/06 07:42:03;;;;;;;;;;;12.80;60.00;;;;;;5101345;28;19930;-71
2022/01/06 07:44:28;;;;;;;;;;;12.80;60.00;;;;;;5101259;28;19907;-71
2022/01/06 07:46:54;;;;;;;;;;;12.80;59.90;;;;;;5101215;28;19908;-71
2022/01/06 07:49:20;;;;;;;;;;;12.80;60.00;;;;;;5083041;28;19900;-71
2022/01/06 07:51:46;;;;;;;;;;;12.80;59.90;;;;;;5101176;28;20196;-71
2022/01/06 07:54:11;;;;;;;;;;;12.80;59.80;;;;;;5101136;28;19945;-70
2022/01/06 07:56:37;;;;;;;;;;;12.80;59.80;;;;;;5101259;28;19919;-71
2022/01/06 07:59:03;;;;;;;;;;;12.80;59.80;;;;;;5083089;28;19953;-71
2022/01/06 08:01:28;;;;;;;;;;;12.80;59.70;;;;;;5100976;28;19900;-71
2022/01/06 08:03:54;;;;;;;;;;;12.80;59.70;;;;;;5100866;28;19960;-71
2022/01/06 08:06:19;;;;;;;;;;;12.80;59.70;;;;;;5082732;28;19954;-71
2022/01/06 08:08:45;;;;;;;;;;;12.80;59.70;;;;;;5100683;28;20188;-71
2022/01/06 08:11:11;;;;;;;;;;;12.80;59.70;;;;;;5100791;28;19901;-71
2022/01/06 08:13:37;;;;;;;;;;;12.80;59.60;;;;;;5101080;28;19943;-70
2022/01/06 08:16:03;;;;;;;;;;;12.80;59.70;;;;;;5100678;28;19912;-71
2022/01/06 08:18:28;;;;;;;;;;;12.80;59.70;;;;;;5100646;28;19907;-71
2022/01/06 08:20:55;;;;;;;;;;;12.80;59.70;;;;;;5100635;28;19908;-70
2022/01/06 08:23:20;;;;;;;;;;;12.90;59.70;;;;;;5100719;28;19904;-70
2022/01/06 08:25:46;;;;;;;;;;;12.90;59.70;;;;;;5100538;28;19931;-71
2022/01/06 08:28:12;;;;;;;;;;;12.90;59.60;;;;;;5100127;28;19916;-70
2022/01/06 08:30:37;;;;;;;;;;;12.90;59.60;;;;;;5100469;28;20408;-70
2022/01/06 08:33:03;;;;;;;;;;;12.90;59.60;;;;;;5100952;28;19945;-71
2022/01/06 08:35:29;;;;;;;;;;;12.90;59.60;;;;;;5100316;28;20480;-71
2022/01/06 08:37:54;;;;;;;;;;;12.90;59.40;;;;;;5082240;28;19915;-71
2022/01/06 08:40:20;;;;;;;;;;;12.90;59.30;;;;;;5100423;28;20183;-70
2022/01/06 08:42:46;;;;;;;;;;;13.00;59.40;;;;;;5100350;28;19907;-71
2022/01/06 08:45:12;;;;;;;;;;;13.00;59.30;;;;;;5100390;28;20223;-71
2022/01/06 08:47:38;;;;;;;;;;;13.00;59.30;;;;;;5100348;28;19930;-71
2022/01/06 08:50:04;;;;;;;;;;;13.00;59.30;;;;;;5100265;28;20184;-70
2022/01/06 08:52:29;;;;;;;;;;;12.90;59.40;;;;;;5100258;28;19908;-70
2022/01/06 08:54:55;;;;;;;;;;;12.90;59.40;;;;;;5100089;28;19945;-71
2022/01/06 08:57:21;;;;;;;;;;;12.90;59.40;;;;;;5100217;28;19900;-70
2022/01/06 08:59:47;;;;;;;;;;;13.00;59.40;;;;;;5082269;28;19982;-71
2022/01/06 09:02:16;;;;;;;;;;;12.90;59.40;;;;;;5082025;28;20100;-71
2022/01/06 09:04:42;;;;;;;;;;;12.90;59.50;;;;;;5100130;28;19908;-70
2022/01/06 09:07:07;;;;;;;;;;;12.90;59.50;;;;;;5100110;28;20266;-70
2022/01/06 09:09:33;;;;;;;;;;;13.00;59.50;;;;;;5099860;28;20237;-70
2022/01/06 09:11:59;;;;;;;;;;;12.90;59.40;;;;;;5099993;28;19900;-70
2022/01/06 09:14:24;;;;;;;;;;;13.00;59.40;;;;;;5100060;28;19908;-70
2022/01/06 09:16:50;;;;;;;;;;;13.00;59.40;;;;;;5099817;28;20081;-70
2022/01/06 09:19:16;;;;;;;;;;;13.00;59.20;;;;;;5099923;28;19962;-70
2022/01/06 09:21:41;;;;;;;;;;;13.10;59.10;;;;;;5081875;28;19930;-71
2022/01/06 09:24:07;;;;;;;;;;;13.20;58.70;;;;;;5099865;28;19907;-71
2022/01/06 09:26:34;;;;;;;;;;;13.20;58.50;;;;;;5081795;28;19979;-71
2022/01/06 09:29:00;;;;;;;;;;;13.30;58.50;;;;;;5099918;28;19919;-70
2022/01/06 09:31:26;;;;;;;;;;;13.30;58.30;;;;;;5099823;28;19922;-71
2022/01/06 09:33:51;;;;;;;;;;;13.30;58.30;;;;;;5099891;28;19908;-70
2022/01/06 09:36:17;;;;;;;;;;;13.30;58.10;;;;;;5099997;28;19911;-70
2022/01/06 09:38:45;;;;;;;;;;;13.30;58.20;;;;;;5100603;28;19908;-70
2022/01/06 09:41:11;;;;;;;;;;;13.40;58.30;;;;;;5103632;28;20069;-70
2022/01/06 09:43:38;;;;;;;;;;;13.40;58.10;;;;;;5103633;28;20124;-70
2022/01/06 09:46:08;;;;;;;;;;;13.40;57.80;;;;;;5103590;28;20069;-70
2022/01/06 09:48:35;;;;;;;;;;;13.40;58.00;;;;;;5103541;28;19906;-70
2022/01/06 09:51:00;;;;;;;;;;;13.50;57.90;;;;;;5103474;28;19942;-70
2022/01/06 09:53:26;;;;;;;;;;;13.40;57.80;;;;;;5103449;28;19904;-70
2022/01/06 09:55:52;;;;;;;;;;;13.40;57.80;;;;;;5085123;28;20134;-70
2022/01/06 09:58:21;;;;;;;;;;;13.50;57.70;;;;;;5103362;28;19915;-69
2022/01/06 10:00:46;;;;;;;;;;;13.50;57.70;;;;;;5103232;28;19900;-70
2022/01/06 10:03:12;;;;;;;;;;;13.50;57.80;;;;;;5085010;28;19915;-70
2022/01/06 10:05:42;;;;;;;;;;;13.50;58.00;;;;;;5103271;28;19931;-70
2022/01/06 10:08:08;;;;;;;;;;;13.50;57.90;;;;;;5103174;28;19947;-70
2022/01/06 10:10:35;;;;;;;;;;;13.50;57.90;;;;;;5102908;28;19961;-70
2022/01/06 10:13:06;;;;;;;;;;;13.50;57.70;;;;;;5103019;28;20092;-71
2022/01/06 10:15:33;;;;;;;;;;;13.50;57.80;;;;;;5102914;28;19955;-70
2022/01/06 10:18:08;;;;;;;;;;;13.50;57.90;;;;;;5102911;28;19907;-70
2022/01/06 10:20:34;;;;;;;;;;;13.50;57.80;;;;;;5102849;28;19988;-71
2022/01/06 10:23:00;;;;;;;;;;;13.50;57.90;;;;;;5102861;28;19900;-70
2022/01/06 10:25:31;;;;;;;;;;;13.50;57.70;;;;;;5102865;28;19904;-70
2022/01/06 10:27:57;;;;;;;;;;;13.50;57.90;;;;;;5084655;28;19935;-69
2022/01/06 10:30:25;;;;;;;;;;;13.50;57.70;;;;;;5084591;28;20124;-70
2022/01/06 10:32:56;;;;;;;;;;;13.50;57.70;;;;;;5102714;28;19976;-70
2022/01/06 10:35:22;;;;;;;;;;;13.50;57.50;;;;;;5102508;28;19912;-70
2022/01/06 10:37:48;;;;;;;;;;;13.50;57.80;;;;;;5102607;28;19940;-70
2022/01/06 10:40:17;;;;;;;;;;;13.40;57.80;;;;;;5102562;28;19964;-70
2022/01/06 10:42:45;;;;;;;;;;;13.50;57.90;;;;;;5102494;28;20012;-70
2022/01/06 10:45:15;;;;;;;;;;;13.50;58.00;;;;;;5102554;28;19900;-70
2022/01/06 10:47:42;;;;;;;;;;;13.50;58.00;;;;;;5102410;28;19907;-69
2022/01/06 10:50:08;;;;;;;;;;;13.50;58.10;;;;;;5102092;28;20111;-69
2022/01/06 10:52:35;;;;;;;;;;;13.50;57.90;;;;;;5102399;28;20097;-70
2022/01/06 10:55:08;;;;;;;;;;;13.50;57.90;;;;;;5084040;28;20188;-69
2022/01/06 10:57:33;;;;;;;;;;;13.40;57.90;;;;;;5102227;28;19936;-69
2022/01/06 10:59:59;;;;;;;;;;;13.50;57.90;;;;;;5102128;28;19915;-70
2022/01/06 11:02:25;;;;;;;;;;;13.50;57.80;;;;;;5102113;28;19987;-70
2022/01/06 11:04:51;;;;;;;;;;;13.50;58.00;;;;;;5102126;28;19939;-70
2022/01/06 11:07:16;;;;;;;;;;;13.50;57.90;;;;;;5102007;28;20108;-70
2022/01/06 11:09:46;;;;;;;;;;;13.50;58.00;;;;;;5101759;28;19931;-70
2022/01/06 11:12:26;;;;;;;;;;;13.50;58.10;;;;;;5101901;28;19908;-70
2022/01/06 11:14:52;;;;;;;;;;;13.50;58.00;;;;;;5083635;28;20258;-70
2022/01/06 11:17:21;;;;;;;;;;;13.50;57.70;;;;;;5083618;28;19986;-70
2022/01/06 11:19:50;;;;;;;;;;;13.50;57.90;;;;;;5101737;28;19908;-71
2022/01/06 11:22:21;;;;;;;;;;;13.50;58.10;;;;;;5101715;28;19973;-70
2022/01/06 11:24:57;;;;;;;;;;;13.50;57.80;;;;;;5101609;28;20357;-70
2022/01/06 11:27:35;;;;;;;;;;;13.50;58.00;;;;;;5101548;28;19943;-70
2022/01/06 11:30:09;;;;;;;;;;;13.50;58.20;;;;;;5101596;28;19935;-70
2022/01/06 11:32:34;;;;;;;;;;;13.50;58.00;;;;;;5101475;28;19956;-71
2022/01/06 11:35:01;;;;;;;;;;;13.40;57.80;;;;;;5083205;28;19900;-69
2022/01/06 11:37:37;;;;;;;;;;;13.40;58.00;;;;;;5101363;28;19908;-71
2022/01/06 11:40:03;;;;;;;;;;;13.40;57.60;;;;;;5101382;28;19908;-70
2022/01/06 11:42:29;;;;;;;;;;;13.40;58.00;;;;;;5101237;28;19949;-70
2022/01/06 11:44:55;;;;;;;;;;;13.50;58.00;;;;;;5101207;28;20214;-70
2022/01/06 11:47:32;;;;;;;;;;;13.50;57.90;;;;;;5101211;28;20252;-70
2022/01/06 11:50:07;;;;;;;;;;;13.50;57.90;;;;;;5101186;28;19908;-70
2022/01/06 11:52:32;;;;;;;;;;;13.50;58.00;;;;;;5101144;28;20399;-70
2022/01/06 11:54:58;;;;;;;;;;;13.50;58.10;;;;;;5100989;28;20010;-70
2022/01/06 11:57:27;;;;;;;;;;;13.50;57.90;;;;;;5101040;28;19930;-69
2022/01/06 11:59:52;;;;;;;;;;;13.50;58.00;;;;;;5100989;28;19907;-70
2022/01/06 12:02:21;;;;;;;;;;;13.50;57.90;;;;;;5100190;28;19956;-70
2022/01/06 12:04:58;;;;;;;;;;;13.50;58.00;;;;;;5100856;28;19915;-70
2022/01/06 12:07:23;;;;;;;;;;;13.50;58.10;;;;;;5100818;28;19935;-69
2022/01/06 12:09:56;;;;;;;;;;;13.50;58.20;;;;;;5082527;28;20262;-70
2022/01/06 12:12:30;;;;;;;;;;;13.50;57.80;;;;;;5100732;28;19908;-69
2022/01/06 12:15:05;;;;;;;;;;;13.50;58.00;;;;;;5082578;28;19936;-70
2022/01/06 12:17:31;;;;;;;;;;;13.50;58.10;;;;;;5100757;28;19922;-70
2022/01/06 12:19:58;;;;;;;;;;;13.50;57.70;;;;;;5082469;28;20100;-70
2022/01/06 12:22:26;;;;;;;;;;;13.50;57.50;;;;;;5100689;28;20224;-70
2022/01/06 12:25:05;;;;;;;;;;;13.50;57.50;;;;;;5100587;28;19900;-70
2022/01/06 12:27:30;;;;;;;;;;;13.50;57.70;;;;;;5100624;28;19971;-70
2022/01/06 12:29:56;;;;;;;;;;;13.50;57.90;;;;;;5082370;28;19961;-70
2022/01/06 12:32:22;;;;;;;;;;;13.50;57.40;;;;;;5100450;28;19916;-70
2022/01/06 12:34:54;;;;;;;;;;;13.50;57.90;;;;;;5100432;28;19908;-70
2022/01/06 12:37:29;;;;;;;;;;;13.50;57.70;;;;;;5100498;28;19949;-70
2022/01/06 12:39:56;;;;;;;;;;;13.50;57.70;;;;;;5100406;28;19900;-70
2022/01/06 12:42:22;;;;;;;;;;;13.50;57.80;;;;;;5082271;28;19907;-70
2022/01/06 12:44:48;;;;;;;;;;;13.50;58.00;;;;;;5100372;28;19960;-71
2022/01/06 12:47:13;;;;;;;;;;;13.50;57.80;;;;;;5100343;28;19912;-70
2022/01/06 12:49:39;;;;;;;;;;;13.50;57.70;;;;;;5100399;28;20212;-70
2022/01/06 12:52:06;;;;;;;;;;;13.50;57.90;;;;;;5082201;28;20159;-70
2022/01/06 12:54:36;;;;;;;;;;;13.50;58.00;;;;;;5082137;28;20100;-69
2022/01/06 12:57:02;;;;;;;;;;;13.50;57.50;;;;;;5100208;28;19953;-70
2022/01/06 12:59:34;;;;;;;;;;;13.50;58.00;;;;;;5100259;28;19908;-70
2022/01/06 13:02:02;;;;;;;;;;;13.50;58.00;;;;;;5081760;28;19900;-69
2022/01/06 13:04:29;;;;;;;;;;;13.50;58.10;;;;;;5100165;28;20305;-70
2022/01/06 13:06:58;;;;;;;;;;;13.50;58.00;;;;;;5081997;28;19907;-71
2022/01/06 13:09:25;;;;;;;;;;;13.50;58.10;;;;;;5100044;28;19920;-70
2022/01/06 13:11:52;;;;;;;;;;;13.50;57.90;;;;;;5082036;28;19907;-71
2022/01/06 13:14:30;;;;;;;;;;;13.50;57.90;;;;;;5103760;28;19915;-70
2022/01/06 13:17:10;;;;;;;;;;;13.50;58.10;;;;;;5104132;28;19923;-70
2022/01/06 13:19:36;;;;;;;;;;;13.50;58.10;;;;;;5104167;28;19900;-70
2022/01/06 13:22:06;;;;;;;;;;;13.50;58.20;;;;;;5104225;28;19908;-71
2022/01/06 13:24:35;;;;;;;;;;;13.50;58.20;;;;;;5085956;28;19915;-70
2022/01/06 13:27:08;;;;;;;;;;;13.50;58.10;;;;;;5104087;28;19900;-70
2022/01/06 13:29:41;;;;;;;;;;;13.50;58.00;;;;;;5103985;28;19908;-71
2022/01/06 13:32:08;;;;;;;;;;;13.50;58.00;;;;;;5104265;28;20100;-70
2022/01/06 13:34:35;;;;;;;;;;;13.50;57.50;;;;;;5103835;28;19908;-70
2022/01/06 13:37:06;;;;;;;;;;;13.50;57.80;;;;;;5085706;28;20210;-70
2022/01/06 13:39:43;;;;;;;;;;;13.50;57.60;;;;;;5103797;28;19906;-70
2022/01/06 13:42:10;;;;;;;;;;;13.50;57.60;;;;;;5085586;28;19914;-71
2022/01/06 13:44:37;;;;;;;;;;;13.50;57.70;;;;;;5103697;28;19904;-71
2022/01/06 13:47:22;;;;;;;;;;;13.50;57.60;;;;;;5103671;28;20223;-72
2022/01/06 13:52:33;;;;;;;;;;;13.60;57.70;;;;;;5103632;28;20219;-71
2022/01/06 13:54:59;;;;;;;;;;;13.50;57.70;;;;;;5085524;28;19912;-71
2022/01/06 13:57:24;;;;;;;;;;;13.50;58.00;;;;;;5103435;28;20223;-71
2022/01/06 13:59:50;;;;;;;;;;;13.60;57.90;;;;;;5085274;28;19900;-71
2022/01/06 14:02:17;;;;;;;;;;;13.60;57.70;;;;;;5085156;28;20026;-71
2022/01/06 14:04:46;;;;;;;;;;;13.60;58.00;;;;;;5085128;28;19979;-71
2022/01/06 14:07:13;;;;;;;;;;;13.50;57.80;;;;;;5103348;28;19915;-70
2022/01/06 14:09:38;;;;;;;;;;;13.50;57.90;;;;;;5103220;28;19923;-70
2022/01/06 14:12:04;;;;;;;;;;;13.50;57.90;;;;;;5085151;28;19915;-70
2022/01/06 14:14:30;;;;;;;;;;;13.50;58.00;;;;;;5103205;28;19908;-69
2022/01/06 14:16:55;;;;;;;;;;;13.50;58.10;;;;;;5103077;28;19904;-71
2022/01/06 14:19:21;;;;;;;;;;;13.50;58.00;;;;;;5103137;28;19935;-70
2022/01/06 14:21:47;;;;;;;;;;;13.50;58.10;;;;;;5103071;28;20103;-70
2022/01/06 14:24:12;;;;;;;;;;;13.50;58.20;;;;;;5102333;28;20132;-71